createdAt,value
2017-09-10T00:00:21.223Z,13.00
2017-09-10T00:02:48.744Z,12.90
2017-09-10T00:05:16.330Z,12.90
2017-09-10T00:07:43.850Z,12.80
2017-09-10T00:10:12.150Z,12.90
2017-09-10T00:12:39.671Z,12.80
2017-09-10T00:15:07.206Z,12.90
2017-09-10T00:17:34.727Z,12.90
2017-09-10T00:20:02.262Z,12.90
2017-09-10T00:22:30.551Z,12.70
2017-09-10T00:24:58.859Z,12.70
2017-09-10T00:27:26.383Z,12.70
2017-09-10T00:29:54.686Z,12.70
2017-09-10T00:32:22.207Z,12.70
2017-09-10T00:34:50.511Z,12.70
2017-09-10T00:37:18.039Z,12.70
2017-09-10T00:39:45.579Z,12.70
2017-09-10T00:42:13.104Z,12.70
2017-09-10T00:44:40.652Z,12.80
2017-09-10T00:47:08.172Z,12.70
2017-09-10T00:49:35.727Z,12.60
2017-09-10T00:52:03.260Z,12.60
2017-09-10T00:54:30.804Z,12.50
2017-09-10T00:56:58.315Z,12.40
2017-09-10T00:59:25.855Z,12.30
2017-09-10T01:01:53.382Z,12.30
2017-09-10T01:04:20.926Z,12.30
2017-09-10T01:06:48.448Z,12.30
2017-09-10T01:09:15.993Z,12.40
2017-09-10T01:11:43.520Z,12.40
2017-09-10T01:14:11.064Z,12.30
2017-09-10T01:16:38.587Z,12.30
2017-09-10T01:19:06.127Z,12.30
2017-09-10T01:21:33.646Z,12.20
2017-09-10T01:24:01.954Z,12.20
2017-09-10T01:26:29.480Z,12.20
2017-09-10T01:28:57.782Z,12.20
2017-09-10T01:31:25.304Z,12.20
2017-09-10T01:33:52.839Z,12.20
2017-09-10T01:36:20.360Z,12.20
2017-09-10T01:38:47.904Z,12.20
2017-09-10T01:41:16.191Z,12.30
2017-09-10T01:43:43.733Z,12.20
2017-09-10T01:46:12.014Z,12.30
2017-09-10T01:48:39.534Z,12.30
2017-09-10T01:51:07.079Z,12.30
2017-09-10T01:53:34.607Z,12.20
2017-09-10T01:56:02.147Z,12.20
2017-09-10T01:58:30.438Z,12.00
2017-09-10T02:00:57.974Z,12.00
2017-09-10T02:03:26.264Z,12.10
2017-09-10T02:05:54.567Z,12.10
2017-09-10T02:08:22.092Z,12.10
2017-09-10T02:10:50.394Z,12.10
2017-09-10T02:13:17.910Z,12.10
2017-09-10T02:15:45.446Z,12.10
2017-09-10T02:18:12.967Z,12.20
2017-09-10T02:20:40.510Z,12.10
2017-09-10T02:23:08.023Z,12.20
2017-09-10T02:25:35.571Z,12.20
2017-09-10T02:28:03.092Z,12.20
2017-09-10T02:30:30.633Z,12.30
2017-09-10T02:32:58.156Z,12.30
2017-09-10T02:35:25.699Z,12.30
2017-09-10T02:37:53.215Z,12.30
2017-09-10T02:40:20.760Z,12.30
2017-09-10T02:42:48.283Z,12.40
2017-09-10T02:45:15.821Z,12.40
2017-09-10T02:47:43.344Z,12.40
2017-09-10T02:50:10.877Z,12.40
2017-09-10T02:52:38.400Z,12.40
2017-09-10T02:55:06.706Z,12.40
2017-09-10T02:57:34.224Z,12.40
2017-09-10T03:00:01.759Z,12.40
2017-09-10T03:02:30.044Z,12.40
2017-09-10T03:04:57.579Z,12.40
2017-09-10T03:07:25.100Z,12.40
2017-09-10T03:09:53.411Z,12.30
2017-09-10T03:12:20.940Z,12.30
2017-09-10T03:14:49.241Z,12.20
2017-09-10T03:17:16.766Z,12.20
2017-09-10T03:19:44.308Z,12.20
2017-09-10T03:22:11.832Z,12.20
2017-09-10T03:24:39.370Z,12.20
2017-09-10T03:27:07.656Z,12.20
2017-09-10T03:29:35.194Z,12.20
2017-09-10T03:32:03.482Z,12.20
2017-09-10T03:34:31.027Z,12.20
2017-09-10T03:36:59.315Z,12.20
2017-09-10T03:39:27.630Z,12.20
2017-09-10T03:41:55.143Z,12.20
2017-09-10T03:44:23.456Z,12.20
2017-09-10T03:46:50.975Z,12.20
2017-09-10T03:49:18.511Z,12.10
2017-09-10T03:51:46.026Z,12.10
2017-09-10T03:54:13.569Z,12.10
2017-09-10T03:56:41.849Z,12.20
2017-09-10T03:59:10.135Z,12.20
2017-09-10T04:01:37.671Z,12.20
2017-09-10T04:04:05.954Z,12.20
2017-09-10T04:06:34.254Z,12.20
2017-09-10T04:09:01.775Z,12.30
2017-09-10T04:11:29.307Z,12.30
2017-09-10T04:13:56.823Z,12.20
2017-09-10T04:16:24.357Z,12.20
2017-09-10T04:18:51.878Z,12.10
2017-09-10T04:21:20.179Z,12.10
2017-09-10T04:23:47.742Z,12.10
2017-09-10T04:26:15.282Z,12.10
2017-09-10T04:28:43.572Z,12.20
2017-09-10T04:31:11.114Z,12.20
2017-09-10T04:33:38.631Z,12.10
2017-09-10T04:36:06.198Z,12.10
2017-09-10T04:38:33.716Z,12.10
2017-09-10T04:41:01.250Z,12.10
2017-09-10T04:43:29.526Z,12.10
2017-09-10T04:45:57.826Z,12.10
2017-09-10T04:48:25.342Z,12.00
2017-09-10T04:50:52.873Z,12.10
2017-09-10T04:53:20.395Z,12.10
2017-09-10T04:55:47.935Z,12.10
2017-09-10T04:58:16.219Z,12.10
2017-09-10T05:00:43.755Z,12.10
2017-09-10T05:03:12.037Z,12.20
2017-09-10T05:05:40.351Z,12.30
2017-09-10T05:08:07.870Z,12.20
2017-09-10T05:10:36.173Z,12.20
2017-09-10T05:13:03.691Z,12.20
2017-09-10T05:15:31.225Z,12.20
2017-09-10T05:17:58.738Z,12.20
2017-09-10T05:20:27.047Z,12.20
2017-09-10T05:22:54.562Z,12.10
2017-09-10T05:25:22.867Z,12.10
2017-09-10T05:27:50.536Z,12.10
2017-09-10T05:30:18.075Z,12.20
2017-09-10T05:32:45.600Z,12.20
2017-09-10T05:35:13.135Z,12.20
2017-09-10T05:37:40.650Z,12.30
2017-09-10T05:40:08.183Z,12.40
2017-09-10T05:42:36.471Z,12.50
2017-09-10T05:45:04.775Z,12.60
2017-09-10T05:47:32.290Z,12.60
2017-09-10T05:50:00.591Z,12.80
2017-09-10T05:52:28.117Z,12.80
2017-09-10T05:54:55.660Z,12.90
2017-09-10T05:57:23.179Z,13.10
2017-09-10T05:59:50.719Z,13.10
2017-09-10T06:02:19.004Z,14.00
2017-09-10T06:04:46.523Z,14.00
2017-09-10T06:07:14.062Z,14.60
2017-09-10T06:09:41.584Z,14.60
2017-09-10T06:12:09.126Z,14.40
2017-09-10T06:14:37.410Z,14.00
2017-09-10T06:17:05.711Z,13.80
2017-09-10T06:19:33.231Z,13.80
2017-09-10T06:22:00.774Z,13.70
2017-09-10T06:24:28.287Z,13.60
2017-09-10T06:26:55.818Z,13.70
2017-09-10T06:29:24.107Z,14.00
2017-09-10T06:31:52.410Z,14.30
2017-09-10T06:34:19.926Z,14.20
2017-09-10T06:36:48.227Z,14.70
2017-09-10T06:39:15.743Z,14.70
2017-09-10T06:41:43.282Z,14.70
2017-09-10T06:44:11.566Z,15.30
2017-09-10T06:46:39.866Z,15.40
2017-09-10T06:49:07.382Z,15.40
2017-09-10T06:51:34.919Z,15.20
2017-09-10T06:54:02.435Z,15.10
2017-09-10T06:56:29.975Z,15.30
2017-09-10T06:58:58.258Z,16.50
2017-09-10T07:01:26.567Z,17.00
2017-09-10T07:03:54.081Z,17.00
2017-09-10T07:06:22.387Z,18.50
2017-09-10T07:08:49.916Z,18.50
2017-09-10T07:11:17.458Z,19.00
2017-09-10T07:13:44.975Z,19.70
2017-09-10T07:16:12.519Z,19.80
2017-09-10T07:18:40.805Z,19.70
2017-09-10T07:21:08.356Z,19.70
2017-09-10T07:23:36.640Z,18.40
2017-09-10T07:26:04.183Z,18.30
2017-09-10T07:28:32.471Z,17.20
2017-09-10T07:31:00.772Z,16.70
2017-09-10T07:33:28.298Z,16.60
2017-09-10T07:35:56.595Z,16.50
2017-09-10T07:38:24.116Z,16.50
2017-09-10T07:40:51.650Z,16.80
2017-09-10T07:43:19.162Z,17.10
2017-09-10T07:45:47.463Z,18.30
2017-09-10T07:48:14.987Z,18.30
2017-09-10T07:50:43.292Z,19.40
2017-09-10T07:53:10.812Z,19.40
2017-09-10T07:55:38.363Z,20.00
2017-09-10T07:58:05.883Z,20.10
2017-09-10T08:00:33.423Z,19.80
2017-09-10T08:03:00.957Z,19.40
2017-09-10T08:05:29.240Z,18.20
2017-09-10T08:07:57.537Z,17.30
2017-09-10T08:10:25.050Z,17.30
2017-09-10T08:12:52.585Z,16.80
2017-09-10T08:15:20.104Z,16.60
2017-09-10T08:17:48.405Z,17.30
2017-09-10T08:20:15.922Z,17.30
2017-09-10T08:22:43.459Z,17.80
2017-09-10T08:25:10.981Z,17.80
2017-09-10T08:27:38.514Z,17.50
2017-09-10T08:30:06.793Z,17.20
2017-09-10T08:32:35.110Z,17.30
2017-09-10T08:35:02.639Z,17.30
2017-09-10T08:37:30.155Z,17.30
2017-09-10T08:39:57.688Z,17.60
2017-09-10T08:42:25.242Z,17.70
2017-09-10T08:44:52.766Z,17.60
2017-09-10T08:47:21.056Z,17.40
2017-09-10T08:49:48.598Z,17.30
2017-09-10T08:52:16.882Z,17.80
2017-09-10T08:54:45.188Z,17.90
2017-09-10T08:57:12.706Z,17.90
2017-09-10T08:59:40.255Z,18.50
2017-09-10T09:02:07.770Z,18.80
2017-09-10T09:04:35.285Z,18.70
2017-09-10T09:07:02.826Z,18.30
2017-09-10T09:09:30.351Z,17.80
2017-09-10T09:11:57.886Z,17.70
2017-09-10T09:14:26.176Z,18.20
2017-09-10T09:16:53.714Z,18.20
2017-09-10T09:19:21.234Z,18.60
2017-09-10T09:21:48.766Z,19.30
2017-09-10T09:24:16.285Z,19.70
2017-09-10T09:26:43.832Z,19.80
2017-09-10T09:29:12.114Z,19.40
2017-09-10T09:31:40.402Z,19.40
2017-09-10T09:34:07.938Z,19.30
2017-09-10T09:36:36.222Z,19.30
2017-09-10T09:39:04.526Z,19.60
2017-09-10T09:41:32.043Z,19.60
2017-09-10T09:43:59.582Z,19.80
2017-09-10T09:46:27.099Z,19.60
2017-09-10T09:48:54.633Z,19.50
2017-09-10T09:51:22.913Z,19.70
2017-09-10T09:53:51.214Z,20.10
2017-09-10T09:56:18.739Z,20.10
2017-09-10T09:58:46.284Z,20.00
2017-09-10T10:01:13.798Z,20.50
2017-09-10T10:03:41.340Z,20.60
2017-09-10T10:06:09.619Z,20.30
2017-09-10T10:08:37.919Z,19.90
2017-09-10T10:11:05.433Z,19.90
2017-09-10T10:13:32.955Z,19.90
2017-09-10T10:16:01.264Z,19.50
2017-09-10T10:18:28.783Z,19.50
2017-09-10T10:20:57.086Z,19.30
2017-09-10T10:23:24.608Z,19.30
2017-09-10T10:25:52.138Z,18.80
2017-09-10T10:28:19.654Z,18.80
2017-09-10T10:30:47.962Z,19.30
2017-09-10T10:33:15.482Z,19.30
2017-09-10T10:35:43.790Z,19.60
2017-09-10T10:38:11.303Z,19.60
2017-09-10T10:40:38.848Z,19.80
2017-09-10T10:43:06.362Z,20.20
2017-09-10T10:45:33.911Z,20.40
2017-09-10T10:48:02.194Z,19.50
2017-09-10T10:50:29.719Z,19.50
2017-09-10T10:52:57.258Z,19.40
2017-09-10T10:55:24.783Z,19.70
2017-09-10T10:57:52.323Z,20.40
2017-09-10T11:00:20.610Z,21.10
2017-09-10T11:02:48.156Z,21.10
2017-09-10T11:05:16.444Z,21.20
2017-09-10T11:07:43.979Z,21.20
2017-09-10T11:10:12.267Z,22.20
2017-09-10T11:12:40.574Z,22.80
2017-09-10T11:15:08.089Z,22.70
2017-09-10T11:17:35.608Z,23.40
2017-09-10T11:20:03.151Z,23.60
2017-09-10T11:22:30.677Z,23.80
2017-09-10T11:24:58.222Z,23.80
2017-09-10T11:27:25.748Z,23.00
2017-09-10T11:29:53.287Z,23.00
2017-09-10T11:32:21.580Z,22.70
2017-09-10T11:34:49.117Z,22.60
2017-09-10T11:37:17.401Z,21.50
2017-09-10T11:39:45.707Z,21.40
2017-09-10T11:42:13.231Z,21.40
2017-09-10T11:44:41.546Z,20.40
2017-09-10T11:47:09.071Z,20.40
2017-09-10T11:49:37.358Z,21.10
2017-09-10T11:52:04.907Z,21.10
2017-09-10T11:54:33.271Z,21.30
2017-09-10T11:57:01.573Z,22.00
2017-09-10T11:59:29.099Z,22.00
2017-09-10T12:01:56.655Z,22.50
2017-09-10T12:04:24.176Z,22.60
2017-09-10T12:06:51.714Z,22.30
2017-09-10T12:09:19.242Z,22.20
2017-09-10T12:11:46.782Z,22.20
2017-09-10T12:14:14.298Z,22.30
2017-09-10T12:16:41.846Z,22.40
2017-09-10T12:19:09.374Z,22.70
2017-09-10T12:21:36.909Z,22.60
2017-09-10T12:24:04.426Z,22.80
2017-09-10T12:26:32.732Z,22.50
2017-09-10T12:29:00.271Z,22.40
2017-09-10T12:31:27.790Z,21.60
2017-09-10T12:33:55.322Z,20.90
2017-09-10T12:36:22.848Z,20.20
2017-09-10T12:38:50.391Z,19.70
2017-09-10T12:41:18.675Z,20.00
2017-09-10T12:43:46.973Z,20.50
2017-09-10T12:46:14.489Z,20.40
2017-09-10T12:48:42.026Z,20.60
2017-09-10T12:51:09.554Z,20.60
2017-09-10T12:53:37.096Z,20.40
2017-09-10T12:56:05.377Z,21.00
2017-09-10T12:58:33.674Z,21.20
2017-09-10T13:01:01.200Z,21.20
2017-09-10T13:03:29.502Z,21.60
2017-09-10T13:05:57.016Z,21.60
2017-09-10T13:08:24.558Z,21.80
2017-09-10T13:10:52.079Z,21.70
2017-09-10T13:13:19.623Z,21.60
2017-09-10T13:15:47.903Z,20.40
2017-09-10T13:18:15.447Z,20.40
2017-09-10T13:20:42.966Z,20.20
2017-09-10T13:23:10.506Z,20.40
2017-09-10T13:25:38.027Z,20.80
2017-09-10T13:28:05.565Z,21.20
2017-09-10T13:30:33.086Z,21.20
2017-09-10T13:33:00.630Z,21.00
2017-09-10T13:35:28.148Z,21.00
2017-09-10T13:37:55.694Z,20.80
2017-09-10T13:40:23.984Z,20.70
2017-09-10T13:42:51.539Z,20.70
2017-09-10T13:45:19.059Z,20.40
2017-09-10T13:47:46.595Z,20.30
2017-09-10T13:50:14.115Z,20.40
2017-09-10T13:52:41.656Z,20.70
2017-09-10T13:55:09.179Z,21.10
2017-09-10T13:57:36.717Z,21.00
2017-09-10T14:00:05.006Z,20.60
2017-09-10T14:02:32.538Z,20.60
2017-09-10T14:05:00.052Z,20.50
2017-09-10T14:07:27.591Z,20.50
2017-09-10T14:09:55.117Z,20.70
2017-09-10T14:12:22.654Z,20.90
2017-09-10T14:14:50.174Z,21.10
2017-09-10T14:17:17.707Z,21.10
2017-09-10T14:19:46.004Z,21.20
2017-09-10T14:22:13.546Z,21.20
2017-09-10T14:24:41.829Z,20.50
2017-09-10T14:27:10.135Z,20.60
2017-09-10T14:29:37.658Z,20.60
2017-09-10T14:32:05.952Z,20.70
2017-09-10T14:34:34.255Z,20.70
2017-09-10T14:37:01.775Z,20.60
2017-09-10T14:39:30.077Z,20.80
2017-09-10T14:41:57.606Z,20.80
2017-09-10T14:44:25.142Z,20.90
2017-09-10T14:46:52.666Z,21.00
2017-09-10T14:49:20.207Z,20.80
2017-09-10T14:51:47.729Z,20.70
2017-09-10T14:54:15.262Z,20.30
2017-09-10T14:56:42.782Z,20.20
2017-09-10T14:59:11.087Z,19.90
2017-09-10T15:01:38.617Z,19.90
2017-09-10T15:04:06.922Z,20.20
2017-09-10T15:06:34.443Z,20.30
2017-09-10T15:09:02.756Z,20.00
2017-09-10T15:11:30.283Z,20.00
2017-09-10T15:13:58.586Z,20.10
2017-09-10T15:16:26.108Z,20.00
2017-09-10T15:18:54.410Z,20.30
2017-09-10T15:21:21.934Z,20.20
2017-09-10T15:23:49.480Z,20.30
2017-09-10T15:26:17.006Z,20.50
2017-09-10T15:28:44.542Z,20.30
2017-09-10T15:31:12.826Z,20.40
2017-09-10T15:33:40.363Z,20.40
2017-09-10T15:36:07.883Z,20.40
2017-09-10T15:38:35.418Z,20.40
2017-09-10T15:41:02.933Z,20.40
2017-09-10T15:43:30.471Z,20.00
2017-09-10T15:45:58.763Z,19.50
2017-09-10T15:48:26.298Z,19.50
2017-09-10T15:50:53.815Z,19.70
2017-09-10T15:53:22.116Z,19.70
2017-09-10T15:55:49.636Z,19.80
2017-09-10T15:58:17.938Z,19.90
2017-09-10T16:00:45.454Z,19.90
2017-09-10T16:03:12.999Z,19.90
2017-09-10T16:05:41.291Z,20.10
2017-09-10T16:08:09.592Z,20.20
2017-09-10T16:10:37.108Z,20.20
2017-09-10T16:13:05.418Z,20.10
2017-09-10T16:15:32.944Z,20.10
2017-09-10T16:18:00.488Z,19.80
2017-09-10T16:20:28.013Z,19.60
2017-09-10T16:22:55.555Z,19.40
2017-09-10T16:25:23.078Z,19.30
2017-09-10T16:27:50.645Z,19.40
2017-09-10T16:30:18.158Z,19.30
2017-09-10T16:32:45.703Z,19.20
2017-09-10T16:35:13.227Z,19.20
2017-09-10T16:37:41.520Z,19.20
2017-09-10T16:40:09.823Z,19.10
2017-09-10T16:42:37.342Z,19.10
2017-09-10T16:45:05.650Z,19.00
2017-09-10T16:47:33.169Z,19.00
2017-09-10T16:50:00.703Z,18.90
2017-09-10T16:52:28.218Z,18.80
2017-09-10T16:54:55.806Z,18.70
2017-09-10T16:57:23.328Z,18.60
2017-09-10T16:59:51.640Z,18.40
2017-09-10T17:02:19.157Z,18.40
2017-09-10T17:04:47.457Z,18.20
2017-09-10T17:07:14.974Z,18.20
2017-09-10T17:09:42.511Z,18.20
2017-09-10T17:12:10.030Z,18.00
2017-09-10T17:14:37.567Z,17.90
2017-09-10T17:17:05.085Z,17.80
2017-09-10T17:19:32.626Z,17.80
2017-09-10T17:22:00.155Z,17.70
2017-09-10T17:24:27.705Z,17.50
2017-09-10T17:26:55.996Z,17.20
2017-09-10T17:29:24.298Z,17.10
2017-09-10T17:31:51.820Z,17.10
2017-09-10T17:34:20.122Z,16.80
2017-09-10T17:36:47.645Z,16.80
2017-09-10T17:39:15.183Z,16.70
2017-09-10T17:41:42.704Z,16.60
2017-09-10T17:44:10.246Z,16.40
2017-09-10T17:46:38.535Z,16.10
2017-09-10T17:49:06.843Z,16.00
2017-09-10T17:51:34.429Z,16.00
2017-09-10T17:54:01.970Z,15.90
2017-09-10T17:56:29.492Z,15.70
2017-09-10T17:58:57.026Z,15.50
2017-09-10T18:01:25.321Z,15.30
2017-09-10T18:03:53.626Z,15.20
2017-09-10T18:06:21.142Z,15.10
2017-09-10T18:08:48.689Z,15.10
2017-09-10T18:11:16.214Z,15.00
2017-09-10T18:13:43.754Z,14.90
2017-09-10T18:16:11.266Z,14.80
2017-09-10T18:18:38.803Z,14.80
2017-09-10T18:21:06.319Z,14.70
2017-09-10T18:23:33.855Z,14.60
2017-09-10T18:26:02.138Z,14.40
2017-09-10T18:28:30.442Z,14.40
2017-09-10T18:30:57.959Z,14.40
2017-09-10T18:33:25.490Z,14.40
2017-09-10T18:35:53.006Z,14.50
2017-09-10T18:38:21.313Z,14.40
2017-09-10T18:40:48.830Z,14.50
2017-09-10T18:43:17.142Z,14.40
2017-09-10T18:45:44.659Z,14.40
2017-09-10T18:48:12.183Z,14.30
2017-09-10T18:50:39.728Z,14.30
2017-09-10T18:53:07.243Z,14.20
2017-09-10T18:55:34.774Z,14.10
2017-09-10T18:58:03.054Z,14.00
2017-09-10T19:00:30.587Z,14.00
2017-09-10T19:02:58.103Z,13.90
2017-09-10T19:05:25.637Z,13.80
2017-09-10T19:07:53.162Z,13.70
2017-09-10T19:10:20.695Z,13.60
2017-09-10T19:12:48.219Z,13.50
2017-09-10T19:15:15.754Z,13.40
2017-09-10T19:17:44.034Z,13.30
2017-09-10T19:20:12.338Z,13.30
2017-09-10T19:22:39.853Z,13.30
2017-09-10T19:25:07.391Z,13.30
2017-09-10T19:27:34.907Z,13.30
2017-09-10T19:30:03.207Z,13.20
2017-09-10T19:32:30.730Z,13.10
2017-09-10T19:34:59.034Z,12.90
2017-09-10T19:37:26.552Z,13.00
2017-09-10T19:39:54.087Z,12.80
2017-09-10T19:42:21.610Z,12.70
2017-09-10T19:44:49.151Z,12.60
2017-09-10T19:47:17.440Z,12.60
2017-09-10T19:49:44.974Z,12.60
2017-09-10T19:52:13.259Z,12.50
2017-09-10T19:54:41.566Z,12.50
2017-09-10T19:57:09.084Z,12.50
2017-09-10T19:59:36.619Z,12.50
2017-09-10T20:02:04.160Z,12.50
2017-09-10T20:04:31.694Z,12.50
2017-09-10T20:06:59.215Z,12.50
2017-09-10T20:09:26.756Z,12.40
2017-09-10T20:11:54.839Z,12.20
2017-09-10T20:14:22.382Z,12.10
2017-09-10T20:16:49.906Z,11.90
2017-09-10T20:19:17.443Z,11.80
2017-09-10T20:21:45.722Z,11.80
2017-09-10T20:24:14.028Z,11.80
2017-09-10T20:26:41.547Z,11.80
2017-09-10T20:29:09.851Z,11.70
2017-09-10T20:31:37.366Z,11.70
2017-09-10T20:34:04.903Z,11.60
2017-09-10T20:36:32.418Z,11.60
2017-09-10T20:39:00.719Z,11.40
2017-09-10T20:41:28.234Z,11.40
2017-09-10T20:43:55.766Z,11.40
2017-09-10T20:46:23.285Z,11.40
2017-09-10T20:48:51.571Z,11.40
2017-09-10T20:51:19.109Z,11.40
2017-09-10T20:53:47.398Z,11.20
2017-09-10T20:56:14.930Z,11.20
2017-09-10T20:58:42.447Z,11.20
2017-09-10T21:01:09.987Z,11.20
2017-09-10T21:03:37.506Z,11.20
2017-09-10T21:06:05.044Z,11.10
2017-09-10T21:08:32.566Z,11.00
2017-09-10T21:11:00.098Z,10.90
2017-09-10T21:13:28.382Z,10.70
2017-09-10T21:15:56.682Z,10.60
2017-09-10T21:18:24.209Z,10.60
2017-09-10T21:20:52.507Z,10.60
2017-09-10T21:23:20.022Z,10.60
2017-09-10T21:25:47.566Z,10.60
2017-09-10T21:28:15.082Z,10.60
2017-09-10T21:30:42.619Z,10.70
2017-09-10T21:33:10.138Z,10.70
2017-09-10T21:35:37.675Z,10.70
2017-09-10T21:38:05.958Z,10.80
2017-09-10T21:40:34.261Z,10.80
2017-09-10T21:43:01.780Z,10.70
2017-09-10T21:45:29.315Z,10.80
2017-09-10T21:47:56.829Z,10.80
2017-09-10T21:50:24.362Z,10.80
2017-09-10T21:52:51.883Z,10.60
2017-09-10T21:55:19.418Z,10.50
2017-09-10T21:57:46.933Z,10.40
2017-09-10T22:00:14.475Z,10.30
2017-09-10T22:02:41.990Z,10.20
2017-09-10T22:05:09.527Z,10.30
2017-09-10T22:07:37.047Z,10.30
2017-09-10T22:10:05.346Z,10.50
2017-09-10T22:12:32.863Z,10.50
2017-09-10T22:15:01.165Z,10.40
2017-09-10T22:17:28.685Z,10.40
2017-09-10T22:19:56.227Z,10.20
2017-09-10T22:22:23.750Z,10.10
2017-09-10T22:24:51.285Z,10.10
2017-09-10T22:27:19.562Z,10.10
2017-09-10T22:29:47.862Z,10.20
2017-09-10T22:32:15.379Z,10.20
2017-09-10T22:34:42.918Z,10.20
2017-09-10T22:37:10.430Z,10.30
2017-09-10T22:39:38.733Z,10.30
2017-09-10T22:42:06.255Z,10.30
2017-09-10T22:44:34.554Z,10.50
2017-09-10T22:47:02.079Z,10.40
2017-09-10T22:49:29.614Z,10.50
2017-09-10T22:51:57.129Z,10.40
2017-09-10T22:54:24.680Z,10.40
2017-09-10T22:56:52.973Z,10.30
2017-09-10T22:59:20.490Z,10.30
2017-09-10T23:01:48.030Z,10.30
2017-09-10T23:04:15.549Z,10.40
2017-09-10T23:06:43.083Z,10.40
2017-09-10T23:09:11.372Z,10.50
2017-09-10T23:11:38.915Z,10.50
2017-09-10T23:14:07.206Z,10.60
2017-09-10T23:16:35.505Z,10.60
2017-09-10T23:19:03.025Z,10.60
2017-09-10T23:21:30.559Z,10.60
2017-09-10T23:23:58.079Z,10.50
2017-09-10T23:26:25.618Z,10.40
2017-09-10T23:28:53.906Z,10.40
2017-09-10T23:31:22.210Z,10.40
2017-09-10T23:33:49.727Z,10.30
2017-09-10T23:36:18.033Z,10.40
2017-09-10T23:38:45.552Z,10.40
2017-09-10T23:41:13.860Z,10.40
2017-09-10T23:43:41.388Z,10.40
2017-09-10T23:46:09.691Z,10.30
2017-09-10T23:48:37.211Z,10.30
2017-09-10T23:51:04.742Z,10.30
2017-09-10T23:53:32.262Z,10.20
2017-09-10T23:55:59.794Z,10.10
2017-09-10T23:58:27.311Z,10.20
